createdAt,value
2023-04-26T00:00:44.236Z,84.14
2023-04-26T00:03:11.007Z,84.14
2023-04-26T00:05:38.189Z,84.66
2023-04-26T00:08:05.117Z,84.86
2023-04-26T00:10:31.641Z,84.92
2023-04-26T00:12:58.156Z,84.61
2023-04-26T00:15:24.670Z,84.48
2023-04-26T00:17:51.672Z,84.73
2023-04-26T00:20:18.253Z,84.36
2023-04-26T00:22:44.759Z,84.77
2023-04-26T00:25:11.239Z,84.49
2023-04-26T00:27:37.680Z,84.09
2023-04-26T00:30:04.627Z,84.95
2023-04-26T00:32:31.918Z,84.50
2023-04-26T00:34:58.395Z,84.24
2023-04-26T00:37:24.935Z,84.64
2023-04-26T00:39:51.519Z,84.93
2023-04-26T00:42:19.389Z,85.09
2023-04-26T00:44:46.066Z,84.94
2023-04-26T00:47:12.653Z,84.83
2023-04-26T00:49:39.281Z,84.93
2023-04-26T00:52:06.324Z,85.34
2023-04-26T00:54:32.944Z,85.70
2023-04-26T00:57:00.575Z,85.89
2023-04-26T00:59:27.528Z,85.38
2023-04-26T01:01:54.031Z,85.79
2023-04-26T01:04:21.558Z,85.85
2023-04-26T01:06:48.252Z,85.44
2023-04-26T01:09:15.684Z,86.05
2023-04-26T01:11:44.189Z,85.43
2023-04-26T01:14:11.371Z,85.61
2023-04-26T01:16:38.696Z,85.58
2023-04-26T01:19:15.260Z,85.48
2023-04-26T01:21:42.939Z,85.84
2023-04-26T01:24:13.462Z,85.43
2023-04-26T01:26:45.696Z,85.50
2023-04-26T01:29:22.279Z,85.42
2023-04-26T01:31:49.057Z,85.36
2023-04-26T01:34:15.957Z,86.15
2023-04-26T01:36:42.765Z,86.28
2023-04-26T01:39:09.483Z,85.79
2023-04-26T01:41:35.950Z,86.19
2023-04-26T01:44:02.611Z,86.55
2023-04-26T01:46:29.197Z,86.46
2023-04-26T01:48:55.707Z,87.10
2023-04-26T01:51:22.209Z,87.32
2023-04-26T01:53:48.880Z,87.44
2023-04-26T01:56:16.115Z,87.30
2023-04-26T01:58:42.598Z,87.10
2023-04-26T02:01:09.740Z,87.48
2023-04-26T02:03:36.427Z,87.26
2023-04-26T02:06:03.271Z,87.24
2023-04-26T02:08:30.027Z,87.79
2023-04-26T02:10:56.639Z,88.10
2023-04-26T02:13:23.245Z,88.01
2023-04-26T02:15:51.382Z,88.00
2023-04-26T02:18:21.782Z,87.85
2023-04-26T02:20:48.562Z,87.60
2023-04-26T02:23:15.059Z,88.18
2023-04-26T02:25:42.342Z,88.48
2023-04-26T02:28:08.823Z,88.01
2023-04-26T02:30:35.323Z,88.66
2023-04-26T02:33:02.316Z,88.21
2023-04-26T02:35:28.860Z,89.08
2023-04-26T02:37:55.302Z,88.32
2023-04-26T02:40:22.155Z,88.39
2023-04-26T02:42:48.727Z,88.76
2023-04-26T02:45:15.206Z,88.25
2023-04-26T02:47:41.671Z,88.15
2023-04-26T02:50:09.142Z,88.11
2023-04-26T02:52:38.944Z,88.46
2023-04-26T02:55:06.041Z,88.58
2023-04-26T02:57:32.971Z,88.79
2023-04-26T02:59:59.853Z,88.60
2023-04-26T03:02:26.553Z,88.82
2023-04-26T03:04:53.704Z,88.63
2023-04-26T03:07:20.228Z,88.41
2023-04-26T03:09:46.726Z,88.18
2023-04-26T03:12:13.214Z,88.38
2023-04-26T03:14:39.653Z,88.64
2023-04-26T03:17:06.567Z,88.36
2023-04-26T03:19:33.041Z,88.16
2023-04-26T03:21:59.571Z,88.61
2023-04-26T03:24:26.208Z,88.45
2023-04-26T03:26:52.712Z,88.30
2023-04-26T03:29:19.158Z,88.34
2023-04-26T03:31:45.761Z,88.06
2023-04-26T03:34:12.289Z,88.07
2023-04-26T03:36:38.904Z,87.73
2023-04-26T03:39:08.424Z,88.35
2023-04-26T03:41:36.961Z,87.96
2023-04-26T03:44:03.574Z,88.34
2023-04-26T03:46:30.130Z,88.15
2023-04-26T03:48:56.597Z,88.05
2023-04-26T03:51:23.060Z,88.63
2023-04-26T03:53:49.536Z,88.17
2023-04-26T03:56:16.013Z,88.44
2023-04-26T03:58:43.227Z,88.83
2023-04-26T04:01:09.759Z,89.34
2023-04-26T04:03:37.885Z,89.53
2023-04-26T04:06:06.720Z,89.10
2023-04-26T04:08:33.834Z,89.34
2023-04-26T04:11:01.517Z,88.91
2023-04-26T04:13:28.216Z,89.10
2023-04-26T04:15:54.740Z,88.71
2023-04-26T04:18:21.275Z,88.63
2023-04-26T04:20:47.707Z,88.70
2023-04-26T04:23:14.213Z,88.98
2023-04-26T04:25:41.096Z,89.52
2023-04-26T04:28:08.582Z,89.71
2023-04-26T04:30:35.570Z,89.68
2023-04-26T04:33:03.314Z,90.08
2023-04-26T04:35:33.611Z,90.21
2023-04-26T04:38:00.696Z,90.16
2023-04-26T04:40:27.781Z,90.13
2023-04-26T04:42:54.857Z,90.06
2023-04-26T04:45:21.668Z,90.02
2023-04-26T04:47:48.433Z,90.28
2023-04-26T04:50:14.982Z,90.74
2023-04-26T04:52:42.500Z,90.57
2023-04-26T04:55:09.141Z,90.42
2023-04-26T04:57:36.019Z,89.83
2023-04-26T05:00:09.861Z,89.84
2023-04-26T05:02:37.390Z,90.08
2023-04-26T05:05:05.467Z,89.78
2023-04-26T05:07:32.552Z,90.20
2023-04-26T05:09:59.988Z,89.83
2023-04-26T05:12:26.743Z,89.75
2023-04-26T05:14:53.382Z,90.10
2023-04-26T05:17:20.213Z,90.36
2023-04-26T05:19:47.277Z,90.20
2023-04-26T05:22:18.596Z,90.11
2023-04-26T05:24:47.045Z,90.29
2023-04-26T05:27:14.379Z,89.98
2023-04-26T05:29:41.662Z,90.09
2023-04-26T05:32:08.593Z,90.90
2023-04-26T05:34:35.503Z,91.07
2023-04-26T05:37:02.109Z,91.38
2023-04-26T05:39:28.593Z,91.13
2023-04-26T05:41:55.089Z,91.60
2023-04-26T05:44:21.522Z,91.11
2023-04-26T05:46:48.006Z,91.76
2023-04-26T05:49:14.507Z,92.03
2023-04-26T05:51:41.125Z,92.04
2023-04-26T05:54:07.710Z,91.72
2023-04-26T05:56:34.251Z,91.91
2023-04-26T05:59:00.825Z,92.23
2023-04-26T06:01:27.816Z,92.25
2023-04-26T06:03:57.880Z,92.26
2023-04-26T06:06:28.448Z,92.44
2023-04-26T06:08:55.460Z,91.80
2023-04-26T06:11:22.316Z,92.05
2023-04-26T06:13:48.826Z,91.39
2023-04-26T06:16:15.974Z,90.82
2023-04-26T06:18:42.879Z,90.68
2023-04-26T06:21:09.412Z,90.17
2023-04-26T06:23:35.889Z,89.92
2023-04-26T06:26:02.372Z,90.36
2023-04-26T06:28:28.879Z,90.30
2023-04-26T06:30:55.468Z,90.34
2023-04-26T06:33:22.115Z,89.59
2023-04-26T06:35:48.630Z,89.28
2023-04-26T06:38:15.149Z,88.88
2023-04-26T06:40:41.707Z,88.89
2023-04-26T06:43:08.157Z,89.06
2023-04-26T06:45:34.777Z,89.07
2023-04-26T06:48:02.008Z,88.13
2023-04-26T06:50:28.504Z,88.87
2023-04-26T06:52:55.020Z,89.33
2023-04-26T06:55:21.606Z,89.10
2023-04-26T06:57:49.832Z,88.80
2023-04-26T07:00:16.617Z,87.89
2023-04-26T07:02:43.233Z,89.46
2023-04-26T07:05:10.180Z,87.85
2023-04-26T07:07:36.740Z,87.69
2023-04-26T07:10:03.978Z,86.79
2023-04-26T07:12:31.266Z,86.47
2023-04-26T07:14:58.055Z,85.28
2023-04-26T07:17:24.632Z,85.06
2023-04-26T07:19:51.161Z,84.12
2023-04-26T07:22:17.643Z,83.94
2023-04-26T07:24:44.143Z,84.25
2023-04-26T07:27:11.064Z,83.66
2023-04-26T07:29:38.827Z,83.43
2023-04-26T07:32:05.596Z,83.65
2023-04-26T07:34:32.330Z,83.91
2023-04-26T07:36:58.958Z,81.06
2023-04-26T07:39:25.486Z,80.60
2023-04-26T07:41:52.008Z,79.93
2023-04-26T07:44:18.485Z,80.41
2023-04-26T07:46:45.076Z,79.40
2023-04-26T07:49:11.506Z,77.58
2023-04-26T07:51:38.003Z,79.12
2023-04-26T07:54:04.550Z,79.52
2023-04-26T07:56:30.996Z,78.24
2023-04-26T07:58:57.501Z,78.33
2023-04-26T08:01:24.011Z,78.17
2023-04-26T08:03:50.974Z,75.86
2023-04-26T08:06:17.898Z,75.47
2023-04-26T08:08:50.487Z,75.35
2023-04-26T08:11:17.509Z,74.44
2023-04-26T08:13:44.239Z,74.18
2023-04-26T08:16:10.937Z,73.00
2023-04-26T08:18:37.516Z,73.64
2023-04-26T08:21:04.360Z,74.04
2023-04-26T08:23:36.529Z,74.73
2023-04-26T08:26:03.319Z,73.52
2023-04-26T08:28:29.974Z,74.98
2023-04-26T08:30:56.696Z,71.27
2023-04-26T08:33:23.224Z,72.38
2023-04-26T08:35:49.816Z,71.77
2023-04-26T08:38:16.384Z,72.13
2023-04-26T08:40:46.576Z,73.04
2023-04-26T08:43:15.352Z,70.05
2023-04-26T08:45:45.759Z,69.58
2023-04-26T08:48:16.176Z,69.16
2023-04-26T08:50:46.022Z,69.59
2023-04-26T08:53:19.648Z,67.76
2023-04-26T08:55:50.638Z,66.11
2023-04-26T08:58:18.111Z,66.80
2023-04-26T09:00:48.535Z,66.04
2023-04-26T09:03:15.302Z,66.26
2023-04-26T09:05:45.560Z,66.20
2023-04-26T09:08:17.339Z,66.45
2023-04-26T09:10:43.839Z,65.72
2023-04-26T09:13:11.398Z,65.85
2023-04-26T09:15:38.290Z,67.65
2023-04-26T09:18:18.996Z,67.31
2023-04-26T09:20:46.132Z,66.45
2023-04-26T09:23:12.608Z,66.02
2023-04-26T09:25:39.656Z,65.90
2023-04-26T09:28:22.562Z,66.16
2023-04-26T09:30:49.480Z,65.99
2023-04-26T09:33:16.234Z,65.70
2023-04-26T09:35:44.209Z,64.77
2023-04-26T09:38:15.022Z,64.16
2023-04-26T09:40:46.886Z,64.39
2023-04-26T09:43:17.645Z,64.80
2023-04-26T09:45:50.603Z,65.41
2023-04-26T09:48:22.833Z,65.84
2023-04-26T09:50:52.548Z,66.97
2023-04-26T09:53:29.602Z,65.49
2023-04-26T09:55:57.158Z,65.04
2023-04-26T09:58:23.816Z,64.69
2023-04-26T10:00:52.332Z,64.66
2023-04-26T10:03:20.932Z,65.65
2023-04-26T10:05:48.080Z,64.54
2023-04-26T10:08:15.065Z,66.30
2023-04-26T10:10:42.715Z,65.11
2023-04-26T10:13:11.994Z,64.32
2023-04-26T10:15:39.895Z,64.57
2023-04-26T10:18:06.951Z,63.47
2023-04-26T10:20:36.104Z,64.16
2023-04-26T10:23:05.270Z,64.02
2023-04-26T10:25:39.114Z,62.95
2023-04-26T10:28:06.014Z,63.76
2023-04-26T10:30:32.844Z,62.80
2023-04-26T10:32:59.351Z,60.55
2023-04-26T10:35:27.853Z,59.46
2023-04-26T10:38:00.317Z,60.50
2023-04-26T10:40:34.844Z,59.88
2023-04-26T10:43:16.747Z,57.75
2023-04-26T10:45:44.943Z,57.57
2023-04-26T10:48:20.260Z,59.58
2023-04-26T10:50:59.367Z,59.47
2023-04-26T10:53:26.022Z,56.94
2023-04-26T10:55:52.810Z,56.37
2023-04-26T10:58:29.913Z,56.67
2023-04-26T11:01:13.446Z,58.21
2023-04-26T11:04:01.571Z,58.18
2023-04-26T11:06:47.788Z,58.87
2023-04-26T11:09:48.956Z,59.09
2023-04-26T11:12:16.643Z,61.64
2023-04-26T11:14:44.194Z,62.27
2023-04-26T11:17:10.978Z,62.84
2023-04-26T11:19:37.450Z,64.23
2023-04-26T11:22:07.234Z,64.20
2023-04-26T11:24:38.854Z,64.07
2023-04-26T11:27:09.841Z,64.63
2023-04-26T11:29:36.825Z,65.13
2023-04-26T11:32:03.789Z,64.70
2023-04-26T11:34:35.384Z,65.77
2023-04-26T11:37:06.375Z,65.50
2023-04-26T11:39:33.498Z,64.02
2023-04-26T11:42:12.569Z,63.17
2023-04-26T11:44:40.439Z,63.00
2023-04-26T11:47:08.084Z,63.80
2023-04-26T11:49:37.582Z,63.11
2023-04-26T11:52:05.968Z,62.76
2023-04-26T11:54:34.065Z,62.99
2023-04-26T11:57:02.032Z,63.04
2023-04-26T11:59:30.782Z,62.62
2023-04-26T12:01:57.939Z,61.53
2023-04-26T12:04:31.166Z,62.90
2023-04-26T12:06:58.507Z,61.27
2023-04-26T12:09:28.228Z,60.69
2023-04-26T12:12:02.045Z,61.26
2023-04-26T12:14:39.487Z,61.38
2023-04-26T12:17:07.447Z,61.00
2023-04-26T12:19:38.249Z,61.24
2023-04-26T12:22:06.823Z,60.34
2023-04-26T12:24:35.835Z,60.78
2023-04-26T12:27:09.440Z,59.44
2023-04-26T12:29:35.948Z,59.52
2023-04-26T12:32:03.699Z,58.94
2023-04-26T12:34:30.980Z,57.94
2023-04-26T12:36:57.648Z,57.60
2023-04-26T12:39:24.142Z,56.94
2023-04-26T12:41:50.647Z,56.54
2023-04-26T12:44:18.348Z,57.81
2023-04-26T12:46:46.290Z,57.33
2023-04-26T12:49:12.812Z,58.36
2023-04-26T12:51:39.368Z,55.16
2023-04-26T12:54:05.968Z,57.92
2023-04-26T12:56:33.761Z,56.28
2023-04-26T12:59:00.437Z,54.79
2023-04-26T13:01:27.174Z,53.35
2023-04-26T13:03:55.649Z,52.20
2023-04-26T13:06:22.446Z,52.89
2023-04-26T13:08:48.889Z,53.59
2023-04-26T13:11:16.383Z,53.00
2023-04-26T13:13:44.671Z,51.81
2023-04-26T13:16:12.828Z,50.92
2023-04-26T13:18:40.335Z,53.19
2023-04-26T13:21:07.962Z,51.78
2023-04-26T13:23:34.539Z,51.50
2023-04-26T13:26:01.002Z,52.60
2023-04-26T13:28:27.455Z,52.44
2023-04-26T13:30:54.171Z,54.08
2023-04-26T13:33:21.391Z,55.04
2023-04-26T13:35:48.188Z,53.78
2023-04-26T13:38:15.415Z,53.09
2023-04-26T13:40:42.183Z,52.17
2023-04-26T13:43:08.685Z,53.07
2023-04-26T13:45:36.660Z,54.56
2023-04-26T13:48:03.367Z,55.28
2023-04-26T13:50:29.902Z,54.98
2023-04-26T13:52:56.656Z,54.21
2023-04-26T13:55:23.440Z,56.11
2023-04-26T13:57:49.964Z,55.31
2023-04-26T14:00:16.987Z,53.28
2023-04-26T14:02:43.669Z,53.95
2023-04-26T14:05:10.518Z,53.92
2023-04-26T14:07:37.193Z,55.07
2023-04-26T14:10:04.515Z,55.68
2023-04-26T14:12:31.045Z,55.75
2023-04-26T14:14:57.591Z,54.45
2023-04-26T14:17:25.270Z,53.84
2023-04-26T14:19:54.591Z,54.54
2023-04-26T14:22:21.362Z,56.92
2023-04-26T14:24:47.984Z,55.31
2023-04-26T14:27:14.831Z,56.82
2023-04-26T14:29:41.371Z,56.73
2023-04-26T14:32:08.010Z,56.26
2023-04-26T14:34:38.991Z,55.91
2023-04-26T14:37:06.852Z,54.47
2023-04-26T14:39:33.625Z,55.57
2023-04-26T14:42:00.145Z,54.78
2023-04-26T14:44:27.391Z,55.08
2023-04-26T14:46:53.870Z,55.59
2023-04-26T14:49:20.575Z,56.05
2023-04-26T14:51:47.168Z,55.85
2023-04-26T14:54:13.692Z,57.56
2023-04-26T14:56:40.523Z,54.99
2023-04-26T14:59:07.961Z,55.21
2023-04-26T15:01:34.491Z,56.99
2023-04-26T15:04:01.654Z,56.50
2023-04-26T15:06:28.752Z,57.17
2023-04-26T15:08:55.229Z,54.39
2023-04-26T15:11:21.686Z,54.45
2023-04-26T15:13:48.161Z,53.89
2023-04-26T15:16:14.706Z,54.61
2023-04-26T15:18:41.354Z,54.69
2023-04-26T15:21:07.858Z,54.95
2023-04-26T15:23:34.362Z,56.05
2023-04-26T15:26:04.308Z,57.07
2023-04-26T15:28:31.086Z,55.80
2023-04-26T15:31:05.429Z,56.51
2023-04-26T15:33:31.907Z,54.69
2023-04-26T15:35:58.482Z,54.41
2023-04-26T15:38:25.163Z,55.90
2023-04-26T15:40:51.743Z,54.38
2023-04-26T15:43:18.495Z,53.97
2023-04-26T15:45:45.412Z,54.85
2023-04-26T15:48:12.211Z,56.28
2023-04-26T15:50:38.806Z,54.07
2023-04-26T15:53:05.277Z,55.35
2023-04-26T15:55:34.724Z,55.95
2023-04-26T15:58:01.226Z,56.44
2023-04-26T16:00:28.427Z,54.02
2023-04-26T16:02:55.103Z,56.33
2023-04-26T16:05:21.680Z,55.18
2023-04-26T16:07:48.254Z,56.29
2023-04-26T16:10:14.748Z,55.89
2023-04-26T16:12:42.370Z,54.84
2023-04-26T16:15:09.677Z,54.65
2023-04-26T16:17:37.452Z,56.91
2023-04-26T16:20:06.773Z,56.32
2023-04-26T16:22:33.905Z,55.11
2023-04-26T16:25:00.766Z,53.08
2023-04-26T16:27:27.447Z,52.66
2023-04-26T16:29:54.473Z,53.37
2023-04-26T16:32:21.648Z,55.53
2023-04-26T16:34:48.191Z,53.52
2023-04-26T16:37:14.828Z,53.67
2023-04-26T16:39:41.343Z,54.54
2023-04-26T16:42:07.879Z,53.71
2023-04-26T16:44:34.430Z,53.71
2023-04-26T16:47:01.684Z,52.07
2023-04-26T16:49:28.242Z,54.10
2023-04-26T16:51:58.759Z,53.74
2023-04-26T16:54:26.091Z,52.98
2023-04-26T16:56:52.570Z,54.12
2023-04-26T16:59:19.375Z,54.05
2023-04-26T17:01:47.304Z,53.80
2023-04-26T17:04:14.078Z,54.11
2023-04-26T17:06:40.821Z,54.98
2023-04-26T17:09:08.294Z,53.88
2023-04-26T17:11:37.150Z,52.78
2023-04-26T17:14:04.320Z,53.18
2023-04-26T17:16:30.888Z,54.37
2023-04-26T17:18:58.380Z,54.47
2023-04-26T17:21:25.276Z,54.13
2023-04-26T17:23:51.729Z,54.98
2023-04-26T17:26:18.232Z,55.77
2023-04-26T17:28:44.694Z,54.78
2023-04-26T17:31:11.323Z,56.00
2023-04-26T17:33:37.836Z,56.40
2023-04-26T17:36:04.753Z,55.94
2023-04-26T17:38:31.243Z,56.55
2023-04-26T17:40:57.734Z,56.04
2023-04-26T17:43:24.220Z,56.42
2023-04-26T17:45:50.766Z,56.70
2023-04-26T17:48:17.324Z,56.35
2023-04-26T17:50:43.814Z,57.30
2023-04-26T17:53:10.792Z,57.52
2023-04-26T17:55:37.466Z,57.38
2023-04-26T17:58:03.968Z,57.75
2023-04-26T18:00:30.491Z,57.75
2023-04-26T18:02:58.094Z,58.33
2023-04-26T18:05:25.124Z,56.82
2023-04-26T18:07:51.823Z,57.30
2023-04-26T18:10:18.439Z,57.08
2023-04-26T18:12:44.954Z,57.94
2023-04-26T18:15:12.325Z,57.59
2023-04-26T18:17:39.026Z,58.30
2023-04-26T18:20:06.683Z,57.95
2023-04-26T18:22:33.259Z,58.20
2023-04-26T18:24:59.749Z,59.59
2023-04-26T18:27:26.609Z,59.38
2023-04-26T18:29:53.112Z,59.45
2023-04-26T18:32:19.553Z,60.12
2023-04-26T18:34:46.588Z,60.45
2023-04-26T18:37:13.025Z,60.67
2023-04-26T18:39:39.505Z,60.68
2023-04-26T18:42:07.086Z,60.84
2023-04-26T18:44:33.596Z,60.85
2023-04-26T18:47:00.053Z,61.22
2023-04-26T18:49:27.272Z,60.84
2023-04-26T18:51:53.946Z,61.95
2023-04-26T18:54:20.398Z,61.76
2023-04-26T18:56:46.827Z,62.05
2023-04-26T18:59:13.315Z,61.89
2023-04-26T19:01:40.418Z,62.43
2023-04-26T19:04:09.056Z,61.97
2023-04-26T19:06:36.028Z,62.36
2023-04-26T19:09:02.584Z,62.82
2023-04-26T19:11:29.139Z,63.01
2023-04-26T19:13:55.838Z,63.36
2023-04-26T19:16:22.443Z,63.30
2023-04-26T19:18:49.164Z,63.17
2023-04-26T19:21:16.264Z,64.12
2023-04-26T19:23:44.779Z,64.27
2023-04-26T19:26:12.698Z,64.09
2023-04-26T19:28:39.368Z,64.77
2023-04-26T19:31:06.228Z,65.04
2023-04-26T19:33:32.770Z,65.14
2023-04-26T19:35:59.307Z,65.43
2023-04-26T19:38:26.012Z,65.85
2023-04-26T19:40:53.119Z,65.76
2023-04-26T19:43:20.519Z,66.27
2023-04-26T19:45:47.464Z,66.35
2023-04-26T19:48:14.089Z,66.85
2023-04-26T19:50:42.209Z,67.40
2023-04-26T19:53:10.112Z,68.15
2023-04-26T19:55:41.017Z,68.55
2023-04-26T19:58:08.303Z,68.71
2023-04-26T20:00:39.144Z,68.88
2023-04-26T20:03:06.302Z,69.37
2023-04-26T20:05:33.637Z,69.71
2023-04-26T20:08:00.398Z,69.87
2023-04-26T20:10:30.924Z,70.41
2023-04-26T20:12:57.757Z,70.55
2023-04-26T20:15:24.361Z,71.34
2023-04-26T20:17:50.909Z,72.13
2023-04-26T20:20:17.779Z,73.01
2023-04-26T20:22:44.279Z,73.42
2023-04-26T20:25:10.905Z,73.46
2023-04-26T20:27:37.554Z,73.74
2023-04-26T20:30:04.746Z,74.25
2023-04-26T20:32:31.525Z,75.09
2023-04-26T20:34:58.196Z,74.80
2023-04-26T20:37:24.678Z,74.35
2023-04-26T20:39:51.398Z,73.70
2023-04-26T20:42:17.883Z,74.14
2023-04-26T20:44:44.398Z,73.74
2023-04-26T20:47:10.855Z,73.73
2023-04-26T20:49:37.406Z,73.74
2023-04-26T20:52:04.214Z,74.01
2023-04-26T20:54:31.555Z,74.36
2023-04-26T20:56:58.027Z,74.44
2023-04-26T20:59:25.284Z,74.30
2023-04-26T21:01:53.220Z,74.68
2023-04-26T21:04:20.016Z,74.78
2023-04-26T21:06:46.604Z,74.98
2023-04-26T21:09:13.381Z,75.09
2023-04-26T21:11:39.855Z,75.62
2023-04-26T21:14:06.852Z,75.46
2023-04-26T21:16:33.371Z,75.44
2023-04-26T21:18:59.843Z,75.60
2023-04-26T21:21:28.293Z,75.98
2023-04-26T21:23:55.017Z,76.26
2023-04-26T21:26:21.503Z,75.99
2023-04-26T21:28:47.949Z,75.92
2023-04-26T21:31:14.483Z,76.36
2023-04-26T21:33:41.096Z,77.29
2023-04-26T21:36:07.871Z,78.16
2023-04-26T21:38:34.833Z,77.89
2023-04-26T21:41:01.348Z,78.29
2023-04-26T21:43:27.794Z,78.65
2023-04-26T21:45:58.232Z,78.61
2023-04-26T21:48:26.198Z,79.66
2023-04-26T21:50:52.985Z,79.90
2023-04-26T21:53:19.454Z,80.06
2023-04-26T21:55:53.856Z,80.15
2023-04-26T21:58:21.441Z,80.12
2023-04-26T22:00:48.775Z,80.00
2023-04-26T22:03:16.150Z,81.05
2023-04-26T22:05:42.921Z,81.54
2023-04-26T22:08:09.358Z,81.02
2023-04-26T22:10:36.963Z,79.79
2023-04-26T22:13:03.771Z,79.82
2023-04-26T22:15:30.792Z,79.84
2023-04-26T22:17:57.412Z,79.59
2023-04-26T22:20:23.936Z,79.87
2023-04-26T22:22:50.397Z,79.69
2023-04-26T22:25:16.871Z,79.51
2023-04-26T22:27:43.353Z,79.69
2023-04-26T22:30:23.691Z,79.72
2023-04-26T22:32:55.525Z,80.02
2023-04-26T22:35:26.751Z,80.60
2023-04-26T22:37:53.989Z,80.29
2023-04-26T22:40:20.560Z,80.52
2023-04-26T22:42:47.171Z,80.22
2023-04-26T22:45:14.144Z,80.48
2023-04-26T22:47:40.999Z,80.86
2023-04-26T22:50:08.364Z,81.09
2023-04-26T22:52:35.459Z,80.62
2023-04-26T22:55:01.920Z,80.93
2023-04-26T22:57:29.446Z,81.30
2023-04-26T22:59:56.000Z,80.69
2023-04-26T23:02:22.489Z,81.10
2023-04-26T23:04:48.985Z,81.31
2023-04-26T23:07:16.383Z,81.52
2023-04-26T23:09:42.955Z,82.34
2023-04-26T23:12:09.797Z,82.30
2023-04-26T23:14:36.349Z,82.47
2023-04-26T23:17:02.970Z,82.36
2023-04-26T23:19:29.604Z,81.92
2023-04-26T23:21:56.345Z,82.27
2023-04-26T23:24:22.871Z,82.53
2023-04-26T23:26:49.489Z,82.05
2023-04-26T23:29:15.958Z,81.91
2023-04-26T23:31:42.649Z,81.71
2023-04-26T23:34:09.193Z,81.63
2023-04-26T23:36:35.706Z,81.46
2023-04-26T23:39:02.116Z,81.05
2023-04-26T23:41:28.580Z,81.18
2023-04-26T23:43:55.102Z,81.50
2023-04-26T23:46:21.639Z,81.78
2023-04-26T23:48:48.174Z,82.13
2023-04-26T23:51:14.602Z,81.94
2023-04-26T23:53:41.172Z,82.14
2023-04-26T23:56:07.766Z,82.38
2023-04-26T23:58:34.290Z,82.87
